createdAt,value
2022-08-27T00:00:59.449Z,77.65
2022-08-27T00:04:44.380Z,70.32
2022-08-27T00:08:26.957Z,54.08
2022-08-27T00:12:10.220Z,56.97
2022-08-27T00:15:53.341Z,60.65
2022-08-27T00:19:36.889Z,66.93
2022-08-27T00:23:21.058Z,59.67
2022-08-27T00:27:04.490Z,93.97
2022-08-27T00:34:29.805Z,76.63
2022-08-27T00:38:12.563Z,68.28
2022-08-27T00:41:56.420Z,51.65
2022-08-27T00:45:41.143Z,63.60
2022-08-27T00:49:28.829Z,52.35
2022-08-27T00:53:15.197Z,46.20
2022-08-27T00:57:00.642Z,39.05
2022-08-27T01:00:43.882Z,43.33
2022-08-27T01:04:26.707Z,41.75
2022-08-27T01:08:14.092Z,39.13
2022-08-27T01:11:59.164Z,32.75
2022-08-27T01:15:43.450Z,32.45
2022-08-27T01:19:31.102Z,35.05
2022-08-27T01:23:19.154Z,41.22
2022-08-27T01:27:04.272Z,38.55
2022-08-27T01:30:48.461Z,45.13
2022-08-27T01:34:30.944Z,59.20
2022-08-27T01:38:18.904Z,68.07
2022-08-27T01:42:20.186Z,71.70
2022-08-27T01:46:02.773Z,80.80
2022-08-27T01:49:45.454Z,83.53
2022-08-27T01:53:28.940Z,101.05
2022-08-27T02:01:00.315Z,103.00
2022-08-27T02:04:43.942Z,97.55
2022-08-27T02:08:26.766Z,91.28
2022-08-27T02:12:10.095Z,103.97
2022-08-27T02:15:53.233Z,112.47
2022-08-27T02:19:37.531Z,130.70
2022-08-27T02:23:20.528Z,129.07
2022-08-27T02:27:03.313Z,149.32
2022-08-27T02:30:46.332Z,143.00
2022-08-27T02:38:14.200Z,145.82
2022-08-27T02:41:56.658Z,160.93
2022-08-27T02:45:39.459Z,128.40
2022-08-27T02:49:22.292Z,122.45
2022-08-27T02:53:06.424Z,115.60
2022-08-27T02:56:50.590Z,119.63
2022-08-27T03:00:33.572Z,102.20
2022-08-27T03:04:18.587Z,111.10
2022-08-27T03:08:03.489Z,98.30
2022-08-27T03:11:46.210Z,93.25
2022-08-27T03:15:30.223Z,101.35
2022-08-27T03:19:13.176Z,95.63
2022-08-27T03:22:56.239Z,95.80
2022-08-27T03:26:39.213Z,98.60
2022-08-27T03:30:23.789Z,111.80
2022-08-27T03:34:09.434Z,118.68
2022-08-27T03:37:52.194Z,115.13
2022-08-27T03:41:45.527Z,104.95
2022-08-27T03:45:48.481Z,126.17
2022-08-27T03:49:41.376Z,124.45
2022-08-27T03:53:23.844Z,127.13
2022-08-27T03:57:07.638Z,110.13
2022-08-27T04:00:50.265Z,125.00
2022-08-27T04:04:32.735Z,125.93
2022-08-27T04:08:17.421Z,109.25
2022-08-27T04:12:00.090Z,108.30
2022-08-27T04:15:45.454Z,103.50
2022-08-27T04:19:30.249Z,102.60
2022-08-27T04:23:13.852Z,102.13
2022-08-27T04:26:58.628Z,102.90
2022-08-27T04:30:41.922Z,89.00
2022-08-27T04:38:07.076Z,90.70
2022-08-27T04:41:50.834Z,97.35
2022-08-27T04:45:34.687Z,97.50
2022-08-27T04:49:17.317Z,96.00
2022-08-27T04:52:59.776Z,79.95
2022-08-27T04:56:42.549Z,86.38
2022-08-27T05:00:25.272Z,87.28
2022-08-27T05:04:10.100Z,87.53
2022-08-27T05:07:52.605Z,92.53
2022-08-27T05:11:35.593Z,76.78
2022-08-27T05:15:18.489Z,74.15
2022-08-27T05:19:01.244Z,83.95
2022-08-27T05:22:46.678Z,81.80
2022-08-27T05:26:30.421Z,80.43
2022-08-27T05:30:13.771Z,81.63
2022-08-27T05:33:57.782Z,71.60
2022-08-27T05:37:40.517Z,84.20
2022-08-27T05:41:33.866Z,77.57
2022-08-27T05:45:17.080Z,73.45
2022-08-27T05:49:01.507Z,77.78
2022-08-27T05:52:44.077Z,76.88
2022-08-27T05:56:31.090Z,68.30
2022-08-27T06:00:43.513Z,74.20
2022-08-27T06:04:27.089Z,71.25
2022-08-27T06:08:10.101Z,71.50
2022-08-27T06:15:38.220Z,69.78
2022-08-27T06:19:21.145Z,66.80
2022-08-27T06:26:46.502Z,74.55
2022-08-27T06:30:30.336Z,71.07
2022-08-27T06:34:13.211Z,69.88
2022-08-27T06:37:56.057Z,67.00
2022-08-27T06:41:38.661Z,71.13
2022-08-27T06:45:23.215Z,63.15
2022-08-27T06:49:07.919Z,67.65
2022-08-27T06:52:50.503Z,60.85
2022-08-27T06:56:33.277Z,63.25
2022-08-27T07:00:16.739Z,64.78
2022-08-27T07:04:01.457Z,60.83
2022-08-27T07:07:48.769Z,55.60
2022-08-27T07:11:33.142Z,57.47
2022-08-27T07:15:15.752Z,59.22
2022-08-27T07:19:01.871Z,80.68
2022-08-27T07:22:49.147Z,62.30
2022-08-27T07:26:33.340Z,62.00
2022-08-27T07:30:16.961Z,58.17
2022-08-27T07:33:59.778Z,64.82
2022-08-27T07:37:43.102Z,62.28
2022-08-27T07:41:30.600Z,60.25
2022-08-27T07:45:13.153Z,62.63
2022-08-27T07:48:57.251Z,57.17
2022-08-27T07:52:40.184Z,59.28
2022-08-27T07:56:23.349Z,60.55
2022-08-27T08:00:10.464Z,62.10
2022-08-27T08:03:53.115Z,67.38
2022-08-27T08:07:38.380Z,71.78
2022-08-27T08:11:21.004Z,58.45
2022-08-27T08:15:03.918Z,63.03
2022-08-27T08:18:48.068Z,62.95
2022-08-27T08:22:30.538Z,58.22
2022-08-27T08:26:13.580Z,60.83
2022-08-27T08:29:56.628Z,63.13
2022-08-27T08:33:39.606Z,66.88
2022-08-27T08:37:24.132Z,64.72
2022-08-27T08:41:08.658Z,61.80
2022-08-27T08:44:53.979Z,64.35
2022-08-27T08:48:38.232Z,68.30
2022-08-27T08:52:39.626Z,72.53
2022-08-27T08:56:26.424Z,73.35
2022-08-27T09:00:13.421Z,74.35
2022-08-27T09:03:58.350Z,68.57
2022-08-27T09:07:50.894Z,71.43
2022-08-27T09:11:40.915Z,81.17
2022-08-27T09:15:28.339Z,72.07
2022-08-27T09:19:13.053Z,66.47
2022-08-27T09:23:12.408Z,73.68
2022-08-27T09:26:55.745Z,68.50
2022-08-27T09:30:43.970Z,75.80
2022-08-27T09:34:28.632Z,81.30
2022-08-27T09:38:20.385Z,69.20
2022-08-27T09:42:04.964Z,64.80
2022-08-27T09:45:49.654Z,63.60
2022-08-27T09:49:34.491Z,71.20
2022-08-27T09:53:22.078Z,61.40
2022-08-27T09:57:06.121Z,62.15
2022-08-27T10:00:50.174Z,58.55
2022-08-27T10:04:51.144Z,60.60
2022-08-27T10:08:42.123Z,50.75
2022-08-27T10:12:29.369Z,66.63
2022-08-27T10:16:41.467Z,58.10
2022-08-27T10:20:35.528Z,53.72
2022-08-27T10:24:26.558Z,56.05
2022-08-27T10:28:24.400Z,58.85
2022-08-27T10:32:20.479Z,48.42
2022-08-27T10:36:11.104Z,50.83
2022-08-27T10:40:10.337Z,57.58
2022-08-27T10:44:31.669Z,48.35
2022-08-27T10:48:25.111Z,50.03
2022-08-27T10:52:18.587Z,48.85
2022-08-27T10:56:11.862Z,54.72
2022-08-27T11:00:08.649Z,47.75
2022-08-27T11:03:55.852Z,48.53
2022-08-27T11:07:42.893Z,49.22
2022-08-27T11:15:39.736Z,44.38
2022-08-27T11:19:29.029Z,42.65
2022-08-27T11:23:15.620Z,44.10
2022-08-27T11:27:04.676Z,51.00
2022-08-27T11:30:58.458Z,53.10
2022-08-27T11:34:47.485Z,52.78
2022-08-27T11:38:45.724Z,54.45
2022-08-27T11:42:37.882Z,47.20
2022-08-27T11:46:25.209Z,42.53
2022-08-27T11:50:20.997Z,46.38
2022-08-27T11:54:07.245Z,47.20
2022-08-27T11:58:06.371Z,53.20
2022-08-27T12:01:50.256Z,53.97
2022-08-27T12:05:40.804Z,49.67
2022-08-27T12:09:24.898Z,50.22
2022-08-27T12:13:19.636Z,52.80
2022-08-27T12:17:09.423Z,46.78
2022-08-27T12:20:59.421Z,62.38
2022-08-27T12:25:00.294Z,57.72
2022-08-27T12:28:44.865Z,51.25
2022-08-27T12:32:31.274Z,48.47
2022-08-27T12:36:28.324Z,46.28
2022-08-27T12:40:21.250Z,50.22
2022-08-27T12:44:12.999Z,48.08
2022-08-27T12:47:57.060Z,48.50
2022-08-27T12:51:41.013Z,53.03
2022-08-27T12:55:35.551Z,43.88
2022-08-27T12:59:39.304Z,51.40
2022-08-27T13:03:31.282Z,48.33
2022-08-27T13:07:14.412Z,46.07
2022-08-27T13:10:57.782Z,48.45
2022-08-27T13:14:42.737Z,47.28
2022-08-27T13:18:30.043Z,40.10
2022-08-27T13:22:21.563Z,52.40
2022-08-27T13:26:07.532Z,54.45
2022-08-27T13:29:52.004Z,47.53
2022-08-27T13:33:37.553Z,47.83
2022-08-27T13:37:25.966Z,51.65
2022-08-27T13:41:10.880Z,52.15
2022-08-27T13:45:01.384Z,44.47
2022-08-27T13:48:46.913Z,46.22
2022-08-27T13:52:33.234Z,46.60
2022-08-27T13:56:27.077Z,46.95
2022-08-27T14:00:17.340Z,48.42
2022-08-27T14:04:02.416Z,47.25
2022-08-27T14:07:47.777Z,47.28
2022-08-27T14:11:31.218Z,47.17
2022-08-27T14:15:21.104Z,53.72
2022-08-27T14:19:11.336Z,59.78
2022-08-27T14:22:54.077Z,47.03
2022-08-27T14:26:37.434Z,52.08
2022-08-27T14:30:29.115Z,46.83
2022-08-27T14:34:12.806Z,42.55
2022-08-27T14:41:38.266Z,46.75
2022-08-27T14:45:24.286Z,50.30
2022-08-27T14:49:12.575Z,46.90
2022-08-27T14:52:55.444Z,48.25
2022-08-27T14:56:38.374Z,50.60
2022-08-27T15:00:21.326Z,48.35
2022-08-27T15:04:05.945Z,51.50
2022-08-27T15:07:48.793Z,48.30
2022-08-27T15:11:34.279Z,48.17
2022-08-27T15:15:17.456Z,47.50
2022-08-27T15:19:01.270Z,53.83
2022-08-27T15:22:47.461Z,50.00
2022-08-27T15:26:31.411Z,49.22
2022-08-27T15:30:26.218Z,54.83
2022-08-27T15:34:09.485Z,50.88
2022-08-27T15:37:54.607Z,44.38
2022-08-27T15:42:03.073Z,45.60
2022-08-27T15:45:44.316Z,52.47
2022-08-27T15:53:11.122Z,41.08
2022-08-27T15:56:53.595Z,37.78
2022-08-27T16:00:38.391Z,35.20
2022-08-27T16:04:21.464Z,38.67
2022-08-27T16:08:05.148Z,41.40
2022-08-27T16:11:49.433Z,38.92
2022-08-27T16:15:33.807Z,30.67
2022-08-27T16:19:18.361Z,35.00
2022-08-27T16:23:01.509Z,31.02
2022-08-27T16:26:44.091Z,42.35
2022-08-27T16:30:29.150Z,34.47
2022-08-27T16:34:16.337Z,31.80
2022-08-27T16:37:59.403Z,32.80
2022-08-27T16:41:42.165Z,32.20
2022-08-27T16:45:24.958Z,28.90
2022-08-27T16:49:26.760Z,35.55
2022-08-27T16:53:13.123Z,37.88
2022-08-27T16:56:55.717Z,34.72
2022-08-27T17:00:39.325Z,39.28
2022-08-27T17:04:30.277Z,35.45
2022-08-27T17:08:16.442Z,34.67
2022-08-27T17:12:05.309Z,31.27
2022-08-27T17:15:52.879Z,39.88
2022-08-27T17:19:37.286Z,35.25
2022-08-27T17:23:24.568Z,36.08
2022-08-27T17:27:07.422Z,40.17
2022-08-27T17:34:32.688Z,42.78
2022-08-27T17:38:16.555Z,42.13
2022-08-27T17:42:00.627Z,44.47
2022-08-27T17:45:44.473Z,44.53
2022-08-27T17:49:27.714Z,56.85
2022-08-27T17:53:10.710Z,38.70
2022-08-27T17:56:54.825Z,39.67
2022-08-27T18:00:37.247Z,45.10
2022-08-27T18:04:19.976Z,38.30
2022-08-27T18:08:02.763Z,44.35
2022-08-27T18:11:46.603Z,41.90
2022-08-27T18:15:33.131Z,42.25
2022-08-27T18:19:15.848Z,42.92
2022-08-27T18:22:58.911Z,43.33
2022-08-27T18:30:24.755Z,44.00
2022-08-27T18:34:08.741Z,50.00
2022-08-27T18:37:51.559Z,46.88
2022-08-27T18:45:19.025Z,41.80
2022-08-27T18:49:01.779Z,45.63
2022-08-27T18:52:46.893Z,43.67
2022-08-27T18:56:29.955Z,38.63
2022-08-27T19:00:15.283Z,37.28
2022-08-27T19:03:58.176Z,39.03
2022-08-27T19:07:40.801Z,40.47
2022-08-27T19:11:24.871Z,39.97
2022-08-27T19:15:09.028Z,41.22
2022-08-27T19:18:52.319Z,40.17
2022-08-27T19:22:35.252Z,38.00
2022-08-27T19:26:22.110Z,40.35
2022-08-27T19:30:07.747Z,44.00
2022-08-27T19:33:52.546Z,39.75
2022-08-27T19:37:38.755Z,36.42
2022-08-27T19:41:27.756Z,36.22
2022-08-27T19:45:12.934Z,40.88
2022-08-27T19:49:01.479Z,35.72
2022-08-27T19:52:44.416Z,40.33
2022-08-27T19:56:28.780Z,41.20
2022-08-27T20:00:16.272Z,39.50
2022-08-27T20:03:59.141Z,40.30
2022-08-27T20:07:43.404Z,36.85
2022-08-27T20:11:26.395Z,44.10
2022-08-27T20:15:09.675Z,47.22
2022-08-27T20:22:44.154Z,43.58
2022-08-27T20:26:29.294Z,36.35
2022-08-27T20:30:13.920Z,33.83
2022-08-27T20:33:58.366Z,34.35
2022-08-27T20:37:42.600Z,33.33
2022-08-27T20:41:25.864Z,38.30
2022-08-27T20:48:56.356Z,29.08
2022-08-27T20:52:40.124Z,43.50
2022-08-27T20:56:22.662Z,43.20
2022-08-27T21:00:22.200Z,37.28
2022-08-27T21:04:05.177Z,34.55
2022-08-27T21:11:33.409Z,31.67
2022-08-27T21:15:16.494Z,35.28
2022-08-27T21:18:59.029Z,35.10
2022-08-27T21:22:42.974Z,36.95
2022-08-27T21:26:27.159Z,41.72
2022-08-27T21:30:12.017Z,34.28
2022-08-27T21:33:54.726Z,33.42
2022-08-27T21:37:38.209Z,37.05
2022-08-27T21:41:21.131Z,41.20
2022-08-27T21:45:05.585Z,43.47
2022-08-27T21:48:48.182Z,44.45
2022-08-27T21:52:41.533Z,44.15
2022-08-27T21:56:24.240Z,41.60
2022-08-27T22:00:18.167Z,40.92
2022-08-27T22:04:01.140Z,38.72
2022-08-27T22:07:44.037Z,40.70
2022-08-27T22:11:26.919Z,43.95
2022-08-27T22:15:11.432Z,50.85
2022-08-27T22:18:54.807Z,39.40
2022-08-27T22:22:37.901Z,52.42
2022-08-27T22:26:21.941Z,53.00
2022-08-27T22:30:08.515Z,56.78
2022-08-27T22:33:55.068Z,51.38
2022-08-27T22:53:14.572Z,51.50
2022-08-27T22:56:57.378Z,57.58
2022-08-27T23:00:40.914Z,56.10
2022-08-27T23:08:27.563Z,60.45
2022-08-27T23:12:10.245Z,67.40
2022-08-27T23:15:53.373Z,55.55
2022-08-27T23:23:19.036Z,45.83
2022-08-27T23:27:22.040Z,37.25
2022-08-27T23:31:04.818Z,37.13
2022-08-27T23:34:47.475Z,48.30
2022-08-27T23:38:30.471Z,41.13
2022-08-27T23:42:16.040Z,39.95
2022-08-27T23:45:58.754Z,37.13
2022-08-27T23:53:25.644Z,33.97
2022-08-27T23:57:08.158Z,25.85
